Llano, TX

9:01 AM CST on January 22, 2018 (GMT -0600)
Llano

Weather History for KAQO - March, 2014

Change the Weather History Date:

Wednesday, March 12, 2014

  Actual Average (KBMQ) Record (KBMQ)
Temperature  
Mean Temperature 56 °F -  
Max Temperature 71 °F 64 °F 84 °F (2012)
Min Temperature 42 °F 46 °F 30 °F (1998)
Degree Days  
Heating Degree Days 8    
Growing Degree Days 6 (Base 50)    
Moisture  
Dew Point 27 °F    
Average Humidity 38    
Maximum Humidity 61    
Minimum Humidity 19    
Precipitation  
Precipitation 0.00 in - - ()
Sea Level Pressure  
Sea Level Pressure 30.21 in    
Wind  
Wind Speed 15 mph (North)    
Max Wind Speed 24 mph    
Max Gust Speed 33 mph    
Visibility 10 miles    
Events      
Averages and records for this station are not official NWS values.
T = Trace of Precipitation, MM = Missing Value Source: NWS Daily Summary

Daily Weather History Graph

Daily Weather History Graph

Search for Another Location

Airport or City:

Trip Planner

Search our weather history database for the weather conditions in past years. The results will help you decide how hot, cold, wet, or windy it might be!

Date:

Astronomy

Mar. 12, 2014 Rise Set
Actual Time 7:48 AM CDT 7:40 PM CDT
Civil Twilight 7:24 AM CDT 8:04 PM CDT
Nautical Twilight 6:56 AM CDT 8:32 PM CDT
Astronomical Twilight 6:28 AM CDT 9:01 PM CDT
Moon 4:23 PM CDT (3/12) 5:08 AM CDT (3/12)
Length of Visible Light 12h 40m
Length of Day
11h 52m
Waxing Gibbous, 85% of the Moon is Illuminated
Mar 12
Waxing Gibbous
Mar 16
Full
Mar 23
Last Quarter
Mar 30
New
Apr 7
First Quarter

Hourly Weather History & Observations

Time (CDT) Temp. Windchill Dew Point Humidity Pressure Visibility Wind Dir Wind Speed Gust Speed Precip Events Conditions
12:15 AM 71.6 °F - 33.8 °F 25% 29.82 in 10.0 mi NNE 15.0 mph 21.9 mph N/A   Clear
12:35 AM 69.8 °F - 37.4 °F 31% 29.85 in 10.0 mi NNE 13.8 mph 25.3 mph N/A   Clear
12:55 AM 66.2 °F - 37.4 °F 35% 29.87 in 10.0 mi NNE 18.4 mph 27.6 mph N/A   Clear
1:15 AM 64.4 °F - 35.6 °F 34% 29.92 in 10.0 mi North 15.0 mph 33.4 mph N/A   Clear
1:35 AM 60.8 °F - 35.6 °F 39% 29.96 in 10.0 mi North 16.1 mph 29.9 mph N/A   Clear
1:55 AM 57.2 °F - 33.8 °F 41% 29.98 in 10.0 mi North 23.0 mph 28.8 mph N/A   Clear
2:15 AM 53.6 °F - 33.8 °F 47% 30.00 in 10.0 mi North 24.2 mph 33.4 mph N/A   Clear
2:35 AM 51.8 °F - 33.8 °F 50% 30.01 in 10.0 mi North 15.0 mph 32.2 mph N/A   Clear
2:55 AM 51.8 °F - 33.8 °F 50% 30.02 in 10.0 mi North 24.2 mph 29.9 mph N/A   Clear
3:15 AM 51.8 °F - 33.8 °F 50% 30.04 in 10.0 mi North 15.0 mph 26.5 mph N/A   Clear
3:35 AM 50.0 °F - 33.8 °F 54% 30.05 in 10.0 mi North 15.0 mph 23.0 mph N/A   Clear
3:55 AM 50.0 °F - 33.8 °F 54% 30.05 in 10.0 mi North 15.0 mph 21.9 mph N/A   Clear
4:15 AM 50.0 °F - 33.8 °F 54% 30.05 in 10.0 mi North 16.1 mph 21.9 mph N/A   Clear
4:35 AM 48.2 °F - 33.8 °F 58% 30.07 in 10.0 mi North 15.0 mph - N/A   Clear
4:55 AM 48.2 °F - 33.8 °F 58% 30.07 in 10.0 mi North 11.5 mph 18.4 mph N/A   Clear
5:15 AM 48.2 °F - 33.8 °F 58% 30.09 in 10.0 mi North 13.8 mph 19.6 mph N/A   Clear
5:35 AM 48.2 °F - 33.8 °F 58% 30.10 in 10.0 mi NNW 9.2 mph - N/A   Clear
5:55 AM 48.2 °F - 33.8 °F 58% 30.11 in 10.0 mi NNW 16.1 mph 21.9 mph N/A   Clear
6:15 AM 46.4 °F 39.8 °F 32.0 °F 57% 30.13 in 10.0 mi North 16.1 mph 24.2 mph N/A   Clear
6:35 AM 46.4 °F 40.4 °F 32.0 °F 57% 30.15 in 10.0 mi NNW 13.8 mph 18.4 mph N/A   Clear
6:55 AM 46.4 °F 41.1 °F 32.0 °F 57% 30.16 in 10.0 mi North 11.5 mph 18.4 mph N/A   Clear
7:15 AM 44.6 °F 38.1 °F 32.0 °F 61% 30.18 in 10.0 mi North 13.8 mph 21.9 mph N/A   Clear
7:35 AM 44.6 °F 37.8 °F 32.0 °F 61% 30.19 in 10.0 mi North 15.0 mph - N/A   Clear
7:55 AM 44.6 °F 37.4 °F 32.0 °F 61% 30.21 in 10.0 mi North 16.1 mph 19.6 mph N/A   Clear
8:15 AM 44.6 °F 38.1 °F 32.0 °F 61% 30.22 in 10.0 mi North 13.8 mph 21.9 mph N/A   Clear
8:35 AM 46.4 °F 40.4 °F 32.0 °F 57% 30.23 in 10.0 mi North 13.8 mph 20.7 mph N/A   Clear
8:55 AM 46.4 °F 39.0 °F 32.0 °F 57% 30.25 in 10.0 mi North 19.6 mph 25.3 mph N/A   Clear
9:15 AM 46.4 °F 38.5 °F 32.0 °F 57% 30.27 in 10.0 mi North 21.9 mph 25.3 mph N/A   Clear
9:35 AM 48.2 °F - 32.0 °F 54% 30.28 in 10.0 mi North 15.0 mph 26.5 mph N/A   Clear
9:55 AM 48.2 °F - 32.0 °F 54% 30.30 in 10.0 mi North 20.7 mph 26.5 mph N/A   Clear
10:15 AM 50.0 °F - 30.2 °F 47% 30.31 in 10.0 mi North 18.4 mph 29.9 mph N/A   Clear
10:35 AM 51.8 °F - 30.2 °F 44% 30.32 in 10.0 mi NNE 19.6 mph 28.8 mph N/A   Clear
10:55 AM 51.8 °F - 30.2 °F 44% 30.33 in 10.0 mi North 20.7 mph 26.5 mph N/A   Clear
11:15 AM 53.6 °F - 28.4 °F 38% 30.33 in 10.0 mi NNE 18.4 mph 24.2 mph N/A   Clear
11:35 AM 53.6 °F - 26.6 °F 35% 30.34 in 10.0 mi North 19.6 mph 27.6 mph N/A   Clear
11:55 AM 55.4 °F - 23.0 °F 29% 30.33 in 10.0 mi North 21.9 mph 28.8 mph N/A   Clear
12:15 PM 57.2 °F - 21.2 °F 25% 30.34 in 10.0 mi NNE 16.1 mph 24.2 mph N/A   Clear
12:35 PM 57.2 °F - 23.0 °F 27% 30.34 in 10.0 mi North 17.3 mph 26.5 mph N/A   Clear
12:55 PM 57.2 °F - 21.2 °F 25% 30.33 in 10.0 mi NNE 16.1 mph 23.0 mph N/A   Clear
1:15 PM 59.0 °F - 21.2 °F 23% 30.33 in 10.0 mi NNE 17.3 mph 26.5 mph N/A   Clear
1:35 PM 60.8 °F - 21.2 °F 22% 30.32 in 10.0 mi NNE 16.1 mph 21.9 mph N/A   Clear
1:55 PM 60.8 °F - 21.2 °F 22% 30.31 in 10.0 mi North 13.8 mph 23.0 mph N/A   Clear
2:15 PM 60.8 °F - 21.2 °F 22% 30.31 in 10.0 mi North 23.0 mph 26.5 mph N/A   Clear
2:35 PM 62.6 °F - 21.2 °F 20% 30.30 in 10.0 mi NNE 20.7 mph 26.5 mph N/A   Clear
2:55 PM 62.6 °F - 21.2 °F 20% 30.29 in 10.0 mi NNE 16.1 mph 23.0 mph N/A   Clear
3:15 PM 62.6 °F - 21.2 °F 20% 30.28 in 10.0 mi NNE 18.4 mph 25.3 mph N/A   Clear
3:35 PM 62.6 °F - 21.2 °F 20% 30.28 in 10.0 mi NNE 12.7 mph 20.7 mph N/A   Clear
3:55 PM 62.6 °F - 21.2 °F 20% 30.28 in 10.0 mi North 19.6 mph 25.3 mph N/A   Clear
4:15 PM 62.6 °F - 21.2 °F 20% 30.27 in 10.0 mi North 15.0 mph 24.2 mph N/A   Clear
4:35 PM 62.6 °F - 21.2 °F 20% 30.27 in 10.0 mi North 9.2 mph 21.9 mph N/A   Clear
4:55 PM 62.6 °F - 21.2 °F 20% 30.26 in 10.0 mi North 18.4 mph 24.2 mph N/A   Clear
5:15 PM 62.6 °F - 21.2 °F 20% 30.26 in 10.0 mi North 15.0 mph 18.4 mph N/A   Clear
5:35 PM 62.6 °F - 21.2 °F 20% 30.26 in 10.0 mi NNE 15.0 mph - N/A   Clear
5:55 PM 62.6 °F - 21.2 °F 20% 30.25 in 10.0 mi North 9.2 mph - N/A   Clear
6:15 PM 62.6 °F - 21.2 °F 20% 30.26 in 10.0 mi North 12.7 mph 16.1 mph N/A   Clear
6:35 PM 62.6 °F - 19.4 °F 19% 30.26 in 10.0 mi North 13.8 mph - N/A   Clear
6:55 PM 60.8 °F - 19.4 °F 20% 30.26 in 10.0 mi North 8.1 mph - N/A   Clear
7:15 PM 60.8 °F - 21.2 °F 22% 30.26 in 10.0 mi North 9.2 mph - N/A   Clear
7:35 PM 57.2 °F - 19.4 °F 23% 30.27 in 10.0 mi NNE 6.9 mph - N/A   Clear
7:55 PM 57.2 °F - 21.2 °F 25% 30.27 in 10.0 mi NNE 4.6 mph - N/A   Clear
8:15 PM 53.6 °F - 21.2 °F 28% 30.28 in 10.0 mi Calm Calm - N/A   Clear
8:35 PM 53.6 °F - 21.2 °F 28% 30.29 in 10.0 mi Calm Calm - N/A   Clear
8:55 PM 51.8 °F - 21.2 °F 30% 30.30 in 10.0 mi Calm Calm - N/A   Clear
9:15 PM 48.2 °F - 23.0 °F 37% 30.31 in 10.0 mi Calm Calm - N/A   Clear
9:35 PM 48.2 °F - 23.0 °F 37% 30.31 in 10.0 mi Calm Calm - N/A   Clear
9:55 PM 44.6 °F - 23.0 °F 43% 30.32 in 10.0 mi Calm Calm - N/A   Clear
10:15 PM 44.6 °F - 23.0 °F 43% 30.32 in 10.0 mi Calm Calm - N/A   Clear
10:35 PM 44.6 °F - 23.0 °F 43% 30.32 in 10.0 mi Calm Calm - N/A   Clear
10:55 PM 46.4 °F - 23.0 °F 40% 30.33 in 10.0 mi Calm Calm - N/A   Clear
11:15 PM 42.8 °F - 24.8 °F 49% 30.33 in 10.0 mi Calm Calm - N/A   Clear
11:35 PM 44.6 °F - 23.0 °F 43% 30.34 in 10.0 mi Calm Calm - N/A   Clear
11:55 PM 44.6 °F - 23.0 °F 43% 30.34 in 10.0 mi Calm Calm - N/A   Clear